DAL2543 KTUS-KSLC
Flight info
| Callsign | DAL2543 |
|---|---|
| Flight time | 1h 27m |
| Altitude | 38000 |
| Route | BURRO5 BBALL PXR BCE PITTT2 |
| Aircraft | B738/M-SDE2E3FGHIRWXY/LB1 |
Departure
| Time | 2026-04-21 20:18 |
|---|---|
| Airport | Tucson International Airport (KTUS) |
Arrival
| Time | 2026-04-21 21:46 |
|---|---|
| Airport | Salt Lake City International Airport (KSLC) |
| Time | Latitude | Longitude | Altitude | Speed | Heading |
|---|---|---|---|---|---|
| 2026-04-21 19:54 | 32.12025 | -110.93874 | 2609 ft | 0 kts | 19° |
| 2026-04-21 20:09 | 32.12014 | -110.93879 | 2609 ft | 4 kts | 19° |
| 2026-04-21 20:09 | 32.11994 | -110.93887 | 2610 ft | 3 kts | 19° |
| 2026-04-21 20:09 | 32.11968 | -110.93895 | 2610 ft | 4 kts | 7° |
| 2026-04-21 20:09 | 32.11942 | -110.93896 | 2610 ft | 4 kts | 352° |
| 2026-04-21 20:10 | 32.11920 | -110.93892 | 2610 ft | 4 kts | 349° |
| 2026-04-21 20:10 | 32.11910 | -110.93890 | 2610 ft | 0 kts | 349° |
| 2026-04-21 20:13 | 32.11919 | -110.93895 | 2610 ft | 5 kts | 327° |
| 2026-04-21 20:13 | 32.11955 | -110.93956 | 2609 ft | 13 kts | 306° |
| 2026-04-21 20:14 | 32.12023 | -110.94051 | 2605 ft | 16 kts | 292° |
| 2026-04-21 20:14 | 32.12027 | -110.94177 | 2601 ft | 16 kts | 302° |
| 2026-04-21 20:14 | 32.12108 | -110.94278 | 2599 ft | 18 kts | 315° |
| 2026-04-21 20:14 | 32.12203 | -110.94389 | 2596 ft | 20 kts | 315° |
| 2026-04-21 20:15 | 32.12309 | -110.94513 | 2589 ft | 22 kts | 314° |
| 2026-04-21 20:15 | 32.12420 | -110.94643 | 2588 ft | 21 kts | 315° |
| 2026-04-21 20:15 | 32.12483 | -110.94739 | 2578 ft | 12 kts | 281° |
| 2026-04-21 20:15 | 32.12467 | -110.94778 | 2579 ft | 0 kts | 224° |
| 2026-04-21 20:17 | 32.12452 | -110.94795 | 2579 ft | 7 kts | 225° |
| 2026-04-21 20:17 | 32.12396 | -110.94839 | 2581 ft | 12 kts | 185° |
| 2026-04-21 20:17 | 32.12329 | -110.94783 | 2584 ft | 9 kts | 135° |
| 2026-04-21 20:17 | 32.12320 | -110.94771 | 2581 ft | 0 kts | 135° |
| 2026-04-21 20:18 | 32.12289 | -110.94735 | 2584 ft | 31 kts | 135° |
| 2026-04-21 20:18 | 32.11749 | -110.94103 | 2607 ft | 128 kts | 135° |
| 2026-04-21 20:18 | 32.10984 | -110.93191 | 2753 ft | 175 kts | 137° |
| 2026-04-21 20:18 | 32.10079 | -110.92103 | 3346 ft | 201 kts | 139° |
| 2026-04-21 20:19 | 32.09047 | -110.90878 | 3930 ft | 216 kts | 135° |
| 2026-04-21 20:19 | 32.07983 | -110.89587 | 4416 ft | 223 kts | 138° |
| 2026-04-21 20:19 | 32.06920 | -110.88205 | 4925 ft | 233 kts | 141° |
| 2026-04-21 20:19 | 32.05622 | -110.86873 | 5192 ft | 261 kts | 143° |
| 2026-04-21 20:20 | 32.04265 | -110.85370 | 5854 ft | 272 kts | 139° |
| 2026-04-21 20:20 | 32.02908 | -110.83792 | 6733 ft | 272 kts | 140° |
| 2026-04-21 20:20 | 32.01474 | -110.82348 | 7577 ft | 271 kts | 156° |
| 2026-04-21 20:20 | 31.99708 | -110.81794 | 8429 ft | 266 kts | 181° |
| 2026-04-21 20:21 | 31.97891 | -110.82154 | 9285 ft | 267 kts | 201° |
| 2026-04-21 20:21 | 31.96285 | -110.83275 | 10161 ft | 266 kts | 217° |
| 2026-04-21 20:21 | 31.94783 | -110.84618 | 10763 ft | 280 kts | 217° |
| 2026-04-21 20:21 | 31.93331 | -110.86289 | 10933 ft | 308 kts | 237° |
| 2026-04-21 20:22 | 31.92597 | -110.88749 | 11254 ft | 331 kts | 260° |
| 2026-04-21 20:22 | 31.92651 | -110.94281 | 12584 ft | 351 kts | 284° |
| 2026-04-21 20:22 | 31.93773 | -110.96866 | 13320 ft | 360 kts | 301° |
| 2026-04-21 20:23 | 31.95254 | -110.99279 | 14022 ft | 365 kts | 304° |
| 2026-04-21 20:23 | 31.96780 | -111.01672 | 14729 ft | 366 kts | 304° |
| 2026-04-21 20:23 | 31.98310 | -111.04078 | 15494 ft | 366 kts | 304° |
| 2026-04-21 20:23 | 31.99826 | -111.06498 | 16240 ft | 367 kts | 304° |
| 2026-04-21 20:24 | 32.01331 | -111.08930 | 16949 ft | 368 kts | 303° |
| 2026-04-21 20:24 | 32.02836 | -111.11380 | 17672 ft | 370 kts | 303° |
| 2026-04-21 20:24 | 32.04344 | -111.13843 | 18360 ft | 372 kts | 303° |
| 2026-04-21 20:24 | 32.05841 | -111.16293 | 18934 ft | 374 kts | 304° |
| 2026-04-21 20:25 | 32.07515 | -111.18656 | 19466 ft | 382 kts | 317° |
| 2026-04-21 20:25 | 32.09792 | -111.20305 | 20105 ft | 388 kts | 335° |
| 2026-04-21 20:25 | 32.12373 | -111.21304 | 20687 ft | 393 kts | 341° |
| 2026-04-21 20:25 | 32.15035 | -111.22161 | 21180 ft | 398 kts | 343° |
| 2026-04-21 20:26 | 32.17726 | -111.22985 | 21700 ft | 401 kts | 343° |
| 2026-04-21 20:26 | 32.20435 | -111.23816 | 22254 ft | 403 kts | 343° |
| 2026-04-21 20:26 | 32.23157 | -111.24664 | 22786 ft | 405 kts | 342° |
| 2026-04-21 20:26 | 32.25882 | -111.25531 | 23307 ft | 407 kts | 342° |
| 2026-04-21 20:27 | 32.28628 | -111.26416 | 23759 ft | 410 kts | 342° |
| 2026-04-21 20:27 | 32.30453 | -111.27010 | 24025 ft | 412 kts | 342° |
| 2026-04-21 20:27 | 32.33225 | -111.27916 | 24430 ft | 414 kts | 342° |
| 2026-04-21 20:27 | 32.36008 | -111.28829 | 24894 ft | 416 kts | 342° |
| 2026-04-21 20:28 | 32.38811 | -111.29751 | 25289 ft | 419 kts | 341° |
| 2026-04-21 20:28 | 32.41629 | -111.30678 | 25683 ft | 421 kts | 341° |
| 2026-04-21 20:28 | 32.44463 | -111.31611 | 26095 ft | 424 kts | 341° |
| 2026-04-21 20:28 | 32.47312 | -111.32549 | 26496 ft | 426 kts | 341° |
| 2026-04-21 20:29 | 32.50173 | -111.33492 | 26881 ft | 428 kts | 341° |
| 2026-04-21 20:29 | 32.53049 | -111.34440 | 27255 ft | 430 kts | 341° |
| 2026-04-21 20:29 | 32.55940 | -111.35393 | 27620 ft | 432 kts | 341° |
| 2026-04-21 20:29 | 32.58850 | -111.36354 | 27983 ft | 435 kts | 341° |
| 2026-04-21 20:30 | 32.61734 | -111.37307 | 28320 ft | 437 kts | 341° |
| 2026-04-21 20:30 | 32.64679 | -111.38280 | 28643 ft | 440 kts | 341° |
| 2026-04-21 20:30 | 32.67634 | -111.39258 | 28982 ft | 442 kts | 341° |
| 2026-04-21 20:30 | 32.70607 | -111.40242 | 29296 ft | 444 kts | 341° |
| 2026-04-21 20:31 | 32.73605 | -111.41235 | 29551 ft | 447 kts | 341° |
| 2026-04-21 20:31 | 32.76602 | -111.42230 | 29979 ft | 447 kts | 341° |
| 2026-04-21 20:31 | 32.79602 | -111.43227 | 30285 ft | 448 kts | 341° |
| 2026-04-21 20:31 | 32.82614 | -111.44229 | 30557 ft | 450 kts | 341° |
| 2026-04-21 20:32 | 32.85636 | -111.45235 | 30827 ft | 451 kts | 341° |
| 2026-04-21 20:32 | 32.88626 | -111.46233 | 31071 ft | 453 kts | 341° |
| 2026-04-21 20:32 | 32.91659 | -111.47242 | 31418 ft | 452 kts | 341° |
| 2026-04-21 20:32 | 32.94674 | -111.48250 | 31878 ft | 447 kts | 339° |
| 2026-04-21 20:33 | 32.97467 | -111.49736 | 32282 ft | 435 kts | 323° |
| 2026-04-21 20:33 | 32.99809 | -111.51962 | 32761 ft | 428 kts | 316° |
| 2026-04-21 20:33 | 33.02044 | -111.54280 | 33185 ft | 424 kts | 316° |
| 2026-04-21 20:33 | 33.04263 | -111.56602 | 33557 ft | 424 kts | 316° |
| 2026-04-21 20:34 | 33.06481 | -111.58918 | 33874 ft | 423 kts | 316° |
| 2026-04-21 20:34 | 33.08699 | -111.61222 | 34174 ft | 422 kts | 316° |
| 2026-04-21 20:34 | 33.10916 | -111.63512 | 34453 ft | 421 kts | 316° |
| 2026-04-21 20:34 | 33.13107 | -111.65771 | 34703 ft | 421 kts | 316° |
| 2026-04-21 20:35 | 33.15305 | -111.68076 | 35026 ft | 419 kts | 316° |
| 2026-04-21 20:35 | 33.17517 | -111.70352 | 35228 ft | 420 kts | 317° |
| 2026-04-21 20:35 | 33.19741 | -111.72627 | 35417 ft | 421 kts | 317° |
| 2026-04-21 20:35 | 33.21964 | -111.74904 | 35722 ft | 419 kts | 317° |
| 2026-04-21 20:36 | 33.24172 | -111.77172 | 36017 ft | 417 kts | 317° |
| 2026-04-21 20:36 | 33.26371 | -111.79438 | 36247 ft | 417 kts | 317° |
| 2026-04-21 20:36 | 33.28575 | -111.81715 | 36390 ft | 419 kts | 316° |
| 2026-04-21 20:36 | 33.30782 | -111.84000 | 36582 ft | 420 kts | 316° |
| 2026-04-21 20:37 | 33.32958 | -111.86256 | 36829 ft | 418 kts | 316° |
| 2026-04-21 20:37 | 33.35155 | -111.88535 | 37093 ft | 417 kts | 316° |
| 2026-04-21 20:37 | 33.37350 | -111.90809 | 37255 ft | 418 kts | 317° |
| 2026-04-21 20:37 | 33.39548 | -111.93083 | 37442 ft | 418 kts | 317° |
| 2026-04-21 20:38 | 33.41915 | -111.95110 | 37650 ft | 422 kts | 329° |
| 2026-04-21 20:38 | 33.44628 | -111.96526 | 37857 ft | 426 kts | 338° |
| 2026-04-21 20:38 | 33.47519 | -111.97401 | 37985 ft | 433 kts | 349° |
| 2026-04-21 20:38 | 33.50544 | -111.97709 | 38006 ft | 439 kts | 353° |
| 2026-04-21 20:39 | 33.56665 | -111.98080 | 38023 ft | 439 kts | 353° |
| 2026-04-21 20:39 | 33.62746 | -111.98443 | 38033 ft | 436 kts | 353° |
| 2026-04-21 20:40 | 33.68802 | -111.98858 | 38019 ft | 434 kts | 353° |
| 2026-04-21 20:40 | 33.74787 | -111.99300 | 38020 ft | 433 kts | 352° |
| 2026-04-21 20:41 | 33.80806 | -111.99754 | 37973 ft | 433 kts | 352° |
| 2026-04-21 20:41 | 33.86826 | -112.00209 | 37984 ft | 434 kts | 352° |
| 2026-04-21 20:42 | 33.92831 | -112.00662 | 38001 ft | 435 kts | 352° |
| 2026-04-21 20:42 | 33.98889 | -112.01119 | 37992 ft | 437 kts | 352° |
| 2026-04-21 20:43 | 34.04968 | -112.01578 | 38016 ft | 438 kts | 352° |
| 2026-04-21 20:43 | 34.11069 | -112.02041 | 37998 ft | 440 kts | 352° |
| 2026-04-21 20:44 | 34.17195 | -112.02504 | 38001 ft | 441 kts | 352° |
| 2026-04-21 20:44 | 34.23336 | -112.02970 | 38001 ft | 442 kts | 353° |
| 2026-04-21 20:45 | 34.29445 | -112.03434 | 37995 ft | 443 kts | 353° |
| 2026-04-21 20:45 | 34.35604 | -112.03902 | 37996 ft | 443 kts | 353° |
| 2026-04-21 20:46 | 34.41761 | -112.04371 | 37988 ft | 443 kts | 353° |
| 2026-04-21 20:46 | 34.47920 | -112.04840 | 38014 ft | 443 kts | 353° |
| 2026-04-21 20:47 | 34.54076 | -112.05310 | 38014 ft | 443 kts | 353° |
| 2026-04-21 20:47 | 34.60230 | -112.05780 | 38025 ft | 442 kts | 353° |
| 2026-04-21 20:48 | 34.66334 | -112.06247 | 38024 ft | 442 kts | 353° |
| 2026-04-21 20:48 | 34.72469 | -112.06717 | 38048 ft | 441 kts | 353° |
| 2026-04-21 20:49 | 34.78602 | -112.07189 | 38053 ft | 440 kts | 353° |
| 2026-04-21 20:49 | 34.84716 | -112.07659 | 38060 ft | 440 kts | 353° |
| 2026-04-21 20:50 | 34.90823 | -112.08129 | 38055 ft | 440 kts | 353° |
| 2026-04-21 20:50 | 34.96944 | -112.08600 | 38052 ft | 441 kts | 352° |
| 2026-04-21 20:51 | 35.03034 | -112.09069 | 38038 ft | 440 kts | 352° |
| 2026-04-21 20:51 | 35.09153 | -112.09546 | 38024 ft | 441 kts | 352° |
| 2026-04-21 20:52 | 35.15290 | -112.10022 | 38047 ft | 441 kts | 352° |
| 2026-04-21 20:52 | 35.18361 | -112.10259 | 38186 ft | 442 kts | 352° |
| 2026-04-21 20:52 | 35.21429 | -112.10498 | 38207 ft | 442 kts | 352° |
| 2026-04-21 20:53 | 35.27592 | -112.10980 | 38211 ft | 444 kts | 352° |
| 2026-04-21 20:53 | 35.33728 | -112.11452 | 38208 ft | 445 kts | 352° |
| 2026-04-21 20:54 | 35.39916 | -112.11938 | 38218 ft | 446 kts | 352° |
| 2026-04-21 20:54 | 35.46122 | -112.12427 | 38159 ft | 447 kts | 353° |
| 2026-04-21 20:55 | 35.52327 | -112.12912 | 38120 ft | 447 kts | 353° |
| 2026-04-21 20:55 | 35.58578 | -112.13391 | 38096 ft | 451 kts | 352° |
| 2026-04-21 20:56 | 35.64882 | -112.13893 | 38041 ft | 455 kts | 352° |
| 2026-04-21 20:56 | 35.71192 | -112.14394 | 38028 ft | 458 kts | 352° |
| 2026-04-21 20:57 | 35.77565 | -112.14897 | 38021 ft | 460 kts | 352° |
| 2026-04-21 20:57 | 35.83951 | -112.15399 | 38016 ft | 459 kts | 352° |
| 2026-04-21 20:58 | 35.87142 | -112.15650 | 38206 ft | 459 kts | 353° |
| 2026-04-21 20:58 | 35.90337 | -112.15902 | 38196 ft | 459 kts | 353° |
| 2026-04-21 20:58 | 35.96698 | -112.16404 | 38194 ft | 456 kts | 353° |
| 2026-04-21 20:59 | 36.03025 | -112.16903 | 38198 ft | 454 kts | 352° |
| 2026-04-21 20:59 | 36.09275 | -112.17397 | 38180 ft | 452 kts | 352° |
| 2026-04-21 21:00 | 36.15542 | -112.17901 | 38108 ft | 449 kts | 352° |
| 2026-04-21 21:00 | 36.21772 | -112.18396 | 38075 ft | 448 kts | 352° |
| 2026-04-21 21:01 | 36.28008 | -112.18892 | 38008 ft | 449 kts | 352° |
| 2026-04-21 21:01 | 36.34250 | -112.19390 | 37999 ft | 449 kts | 352° |
| 2026-04-21 21:02 | 36.40494 | -112.19892 | 38003 ft | 450 kts | 352° |
| 2026-04-21 21:02 | 36.46762 | -112.20393 | 38008 ft | 452 kts | 352° |
| 2026-04-21 21:03 | 36.53007 | -112.20896 | 38010 ft | 453 kts | 352° |
| 2026-04-21 21:03 | 36.59311 | -112.21405 | 38000 ft | 455 kts | 352° |
| 2026-04-21 21:04 | 36.65641 | -112.21915 | 37990 ft | 456 kts | 352° |
| 2026-04-21 21:04 | 36.71996 | -112.22427 | 37972 ft | 457 kts | 352° |
| 2026-04-21 21:05 | 36.78349 | -112.22941 | 37982 ft | 458 kts | 352° |
| 2026-04-21 21:05 | 36.84678 | -112.23454 | 37961 ft | 459 kts | 352° |
| 2026-04-21 21:06 | 36.91051 | -112.23971 | 37940 ft | 459 kts | 352° |
| 2026-04-21 21:06 | 36.97417 | -112.24489 | 37946 ft | 458 kts | 352° |
| 2026-04-21 21:07 | 37.03777 | -112.25006 | 37936 ft | 458 kts | 352° |
| 2026-04-21 21:07 | 37.10129 | -112.25524 | 37929 ft | 457 kts | 352° |
| 2026-04-21 21:08 | 37.16469 | -112.26042 | 37936 ft | 456 kts | 352° |
| 2026-04-21 21:08 | 37.22794 | -112.26560 | 37947 ft | 455 kts | 353° |
| 2026-04-21 21:09 | 37.29117 | -112.27079 | 37946 ft | 454 kts | 353° |
| 2026-04-21 21:09 | 37.35395 | -112.27596 | 37947 ft | 454 kts | 353° |
| 2026-04-21 21:10 | 37.41706 | -112.28117 | 37997 ft | 455 kts | 352° |
| 2026-04-21 21:10 | 37.48045 | -112.28642 | 38043 ft | 456 kts | 352° |
| 2026-04-21 21:11 | 37.54400 | -112.29171 | 38083 ft | 458 kts | 352° |
| 2026-04-21 21:11 | 37.60752 | -112.29704 | 38129 ft | 460 kts | 352° |
| 2026-04-21 21:12 | 37.67152 | -112.30239 | 38141 ft | 463 kts | 352° |
| 2026-04-21 21:12 | 37.73595 | -112.30867 | 38146 ft | 465 kts | 351° |
| 2026-04-21 21:13 | 37.80053 | -112.31672 | 38119 ft | 468 kts | 350° |
| 2026-04-21 21:13 | 37.86559 | -112.32503 | 38083 ft | 471 kts | 351° |
| 2026-04-21 21:14 | 37.91997 | -112.33183 | 38041 ft | 474 kts | 351° |
| 2026-04-21 21:14 | 37.99664 | -112.34129 | 37946 ft | 477 kts | 351° |
| 2026-04-21 21:15 | 38.05173 | -112.34807 | 37939 ft | 478 kts | 351° |
| 2026-04-21 21:15 | 38.11801 | -112.35623 | 37940 ft | 477 kts | 351° |
| 2026-04-21 21:16 | 38.18398 | -112.36438 | 37930 ft | 475 kts | 351° |
| 2026-04-21 21:16 | 38.24974 | -112.37254 | 37914 ft | 474 kts | 351° |
| 2026-04-21 21:17 | 38.31505 | -112.38067 | 37919 ft | 472 kts | 351° |
| 2026-04-21 21:17 | 38.38035 | -112.38879 | 37902 ft | 471 kts | 351° |
| 2026-04-21 21:18 | 38.44533 | -112.39691 | 37909 ft | 468 kts | 351° |
| 2026-04-21 21:18 | 38.51018 | -112.40502 | 37837 ft | 468 kts | 351° |
| 2026-04-21 21:19 | 38.57438 | -112.41306 | 37877 ft | 466 kts | 351° |
| 2026-04-21 21:19 | 38.63915 | -112.42123 | 37887 ft | 468 kts | 351° |
| 2026-04-21 21:20 | 38.70416 | -112.42947 | 37929 ft | 471 kts | 351° |
| 2026-04-21 21:20 | 38.76998 | -112.43782 | 37948 ft | 477 kts | 351° |
| 2026-04-21 21:21 | 38.83656 | -112.44622 | 37229 ft | 489 kts | 351° |
| 2026-04-21 21:21 | 38.87030 | -112.45041 | 36718 ft | 485 kts | 351° |
| 2026-04-21 21:21 | 38.90391 | -112.45458 | 36127 ft | 485 kts | 351° |
| 2026-04-21 21:22 | 38.93746 | -112.45877 | 35557 ft | 485 kts | 351° |
| 2026-04-21 21:22 | 38.97108 | -112.46301 | 34911 ft | 486 kts | 351° |
| 2026-04-21 21:22 | 39.00484 | -112.46730 | 34239 ft | 488 kts | 351° |
| 2026-04-21 21:22 | 39.03875 | -112.47163 | 33494 ft | 490 kts | 351° |
| 2026-04-21 21:23 | 39.07271 | -112.47598 | 32752 ft | 491 kts | 352° |
| 2026-04-21 21:23 | 39.10681 | -112.48035 | 32063 ft | 491 kts | 352° |
| 2026-04-21 21:23 | 39.14072 | -112.48469 | 31573 ft | 487 kts | 352° |
| 2026-04-21 21:23 | 39.17434 | -112.48900 | 31049 ft | 483 kts | 352° |
| 2026-04-21 21:24 | 39.20773 | -112.49330 | 30534 ft | 480 kts | 352° |
| 2026-04-21 21:24 | 39.24084 | -112.49755 | 30027 ft | 477 kts | 352° |
| 2026-04-21 21:24 | 39.27333 | -112.50158 | 29414 ft | 475 kts | 354° |
| 2026-04-21 21:24 | 39.30640 | -112.50163 | 28884 ft | 473 kts | 3° |
| 2026-04-21 21:25 | 39.33888 | -112.49516 | 28369 ft | 471 kts | 13° |
| 2026-04-21 21:25 | 39.37052 | -112.48461 | 27865 ft | 468 kts | 15° |
| 2026-04-21 21:25 | 39.40184 | -112.47363 | 27358 ft | 464 kts | 15° |
| 2026-04-21 21:25 | 39.43292 | -112.46270 | 26868 ft | 461 kts | 15° |
| 2026-04-21 21:26 | 39.46379 | -112.45200 | 26360 ft | 457 kts | 14° |
| 2026-04-21 21:26 | 39.49450 | -112.44155 | 25891 ft | 454 kts | 14° |
| 2026-04-21 21:26 | 39.52461 | -112.43142 | 25419 ft | 451 kts | 14° |
| 2026-04-21 21:26 | 39.55489 | -112.42132 | 24947 ft | 448 kts | 14° |
| 2026-04-21 21:27 | 39.58510 | -112.41127 | 24443 ft | 447 kts | 14° |
| 2026-04-21 21:27 | 39.61522 | -112.40125 | 23953 ft | 445 kts | 14° |
| 2026-04-21 21:27 | 39.64524 | -112.39127 | 23459 ft | 444 kts | 14° |
| 2026-04-21 21:27 | 39.67520 | -112.38128 | 22903 ft | 442 kts | 14° |
| 2026-04-21 21:28 | 39.70458 | -112.37148 | 22400 ft | 440 kts | 14° |
| 2026-04-21 21:28 | 39.73413 | -112.36161 | 21912 ft | 437 kts | 14° |
| 2026-04-21 21:28 | 39.79264 | -112.34203 | 20956 ft | 431 kts | 14° |
| 2026-04-21 21:29 | 39.82160 | -112.33234 | 20487 ft | 429 kts | 14° |
| 2026-04-21 21:29 | 39.85043 | -112.32267 | 20005 ft | 426 kts | 15° |
| 2026-04-21 21:29 | 39.87907 | -112.31293 | 19507 ft | 425 kts | 15° |
| 2026-04-21 21:29 | 39.90759 | -112.30342 | 19056 ft | 422 kts | 15° |
| 2026-04-21 21:30 | 39.93598 | -112.29395 | 18580 ft | 420 kts | 15° |
| 2026-04-21 21:30 | 39.96424 | -112.28449 | 18122 ft | 418 kts | 15° |
| 2026-04-21 21:30 | 39.99241 | -112.27503 | 17614 ft | 416 kts | 15° |
| 2026-04-21 21:30 | 40.01993 | -112.26575 | 17161 ft | 412 kts | 15° |
| 2026-04-21 21:31 | 40.04757 | -112.25641 | 16741 ft | 407 kts | 15° |
| 2026-04-21 21:31 | 40.07470 | -112.24721 | 16529 ft | 398 kts | 16° |
| 2026-04-21 21:31 | 40.10133 | -112.23815 | 16308 ft | 392 kts | 16° |
| 2026-04-21 21:31 | 40.12769 | -112.22918 | 16083 ft | 391 kts | 16° |
| 2026-04-21 21:32 | 40.15421 | -112.22016 | 15879 ft | 396 kts | 16° |
| 2026-04-21 21:32 | 40.18111 | -112.21104 | 15651 ft | 399 kts | 16° |
| 2026-04-21 21:32 | 40.20787 | -112.20200 | 15417 ft | 396 kts | 16° |
| 2026-04-21 21:32 | 40.23455 | -112.19297 | 15197 ft | 394 kts | 16° |
| 2026-04-21 21:33 | 40.26095 | -112.18402 | 15107 ft | 390 kts | 17° |
| 2026-04-21 21:33 | 40.28740 | -112.17500 | 14902 ft | 395 kts | 17° |
| 2026-04-21 21:33 | 40.31371 | -112.16602 | 14708 ft | 395 kts | 16° |
| 2026-04-21 21:33 | 40.34028 | -112.15699 | 14491 ft | 392 kts | 17° |
| 2026-04-21 21:34 | 40.36657 | -112.14795 | 14277 ft | 390 kts | 17° |
| 2026-04-21 21:34 | 40.39273 | -112.13898 | 14076 ft | 387 kts | 17° |
| 2026-04-21 21:34 | 40.41878 | -112.13012 | 13861 ft | 386 kts | 17° |
| 2026-04-21 21:34 | 40.44485 | -112.12172 | 13632 ft | 384 kts | 16° |
| 2026-04-21 21:35 | 40.47059 | -112.11287 | 13415 ft | 380 kts | 16° |
| 2026-04-21 21:35 | 40.49610 | -112.10398 | 13202 ft | 377 kts | 17° |
| 2026-04-21 21:35 | 40.52144 | -112.09525 | 12995 ft | 374 kts | 17° |
| 2026-04-21 21:35 | 40.54657 | -112.08666 | 12763 ft | 373 kts | 16° |
| 2026-04-21 21:36 | 40.57211 | -112.08086 | 12504 ft | 373 kts | 5° |
| 2026-04-21 21:36 | 40.59763 | -112.07952 | 12315 ft | 371 kts | 2° |
| 2026-04-21 21:36 | 40.62344 | -112.07832 | 12092 ft | 369 kts | 2° |
| 2026-04-21 21:36 | 40.64904 | -112.07855 | 11919 ft | 366 kts | 356° |
| 2026-04-21 21:37 | 40.67424 | -112.08161 | 11793 ft | 362 kts | 353° |
| 2026-04-21 21:37 | 40.69903 | -112.08516 | 11654 ft | 353 kts | 354° |
| 2026-04-21 21:37 | 40.72308 | -112.08830 | 11502 ft | 343 kts | 354° |
| 2026-04-21 21:37 | 40.74644 | -112.09110 | 11363 ft | 331 kts | 355° |
| 2026-04-21 21:38 | 40.76894 | -112.09376 | 11212 ft | 315 kts | 355° |
| 2026-04-21 21:38 | 40.79007 | -112.09627 | 11162 ft | 296 kts | 355° |
| 2026-04-21 21:38 | 40.81005 | -112.09861 | 11055 ft | 282 kts | 355° |
| 2026-04-21 21:38 | 40.82913 | -112.10084 | 10883 ft | 274 kts | 355° |
| 2026-04-21 21:39 | 40.84767 | -112.10305 | 10624 ft | 261 kts | 355° |
| 2026-04-21 21:39 | 40.86510 | -112.10511 | 10349 ft | 242 kts | 354° |
| 2026-04-21 21:39 | 40.88147 | -112.10704 | 10114 ft | 233 kts | 354° |
| 2026-04-21 21:39 | 40.89766 | -112.10895 | 9883 ft | 234 kts | 354° |
| 2026-04-21 21:40 | 40.91396 | -112.11095 | 9585 ft | 236 kts | 354° |
| 2026-04-21 21:40 | 40.93036 | -112.11288 | 9282 ft | 237 kts | 355° |
| 2026-04-21 21:40 | 40.94675 | -112.11227 | 8999 ft | 233 kts | 16° |
| 2026-04-21 21:40 | 40.96049 | -112.10190 | 8979 ft | 230 kts | 50° |
| 2026-04-21 21:41 | 40.96915 | -112.08461 | 8989 ft | 224 kts | 75° |
| 2026-04-21 21:41 | 40.97228 | -112.06478 | 8916 ft | 219 kts | 96° |
| 2026-04-21 21:41 | 40.96971 | -112.04535 | 8543 ft | 213 kts | 119° |
| 2026-04-21 21:41 | 40.96188 | -112.02945 | 8054 ft | 206 kts | 140° |
| 2026-04-21 21:42 | 40.95043 | -112.01876 | 7496 ft | 197 kts | 162° |
| 2026-04-21 21:42 | 40.93761 | -112.01409 | 7014 ft | 185 kts | 178° |
| 2026-04-21 21:42 | 40.92503 | -112.01277 | 6572 ft | 175 kts | 179° |
| 2026-04-21 21:42 | 40.91359 | -112.01159 | 6378 ft | 157 kts | 179° |
| 2026-04-21 21:43 | 40.90320 | -112.01049 | 6203 ft | 146 kts | 179° |
| 2026-04-21 21:43 | 40.89289 | -112.00932 | 6019 ft | 152 kts | 180° |
| 2026-04-21 21:43 | 40.88193 | -112.00802 | 5818 ft | 163 kts | 179° |
| 2026-04-21 21:43 | 40.87108 | -112.00671 | 5603 ft | 156 kts | 180° |
| 2026-04-21 21:44 | 40.86033 | -112.00546 | 5331 ft | 153 kts | 178° |
| 2026-04-21 21:44 | 40.84951 | -112.00394 | 5097 ft | 162 kts | 181° |
| 2026-04-21 21:44 | 40.83831 | -112.00302 | 4859 ft | 157 kts | 175° |
| 2026-04-21 21:44 | 40.82812 | -112.00168 | 4706 ft | 139 kts | 178° |
| 2026-04-21 21:45 | 40.81871 | -112.00063 | 4472 ft | 132 kts | 178° |
| 2026-04-21 21:45 | 40.80945 | -111.99956 | 4290 ft | 133 kts | 176° |
| 2026-04-21 21:45 | 40.80111 | -111.99854 | 4233 ft | 107 kts | 176° |
| 2026-04-21 21:45 | 40.79507 | -111.99783 | 4228 ft | 66 kts | 174° |
| 2026-04-21 21:46 | 40.79181 | -111.99695 | 4230 ft | 41 kts | 147° |
| 2026-04-21 21:46 | 40.79091 | -111.99468 | 4230 ft | 25 kts | 102° |
| 2026-04-21 21:46 | 40.78945 | -111.99402 | 4230 ft | 23 kts | 175° |
| 2026-04-21 21:46 | 40.78788 | -111.99384 | 4230 ft | 22 kts | 174° |
| 2026-04-21 21:47 | 40.78651 | -111.99329 | 4230 ft | 20 kts | 109° |
| 2026-04-21 21:47 | 40.78661 | -111.99149 | 4230 ft | 16 kts | 85° |
| 2026-04-21 21:47 | 40.78671 | -111.99012 | 4230 ft | 12 kts | 77° |
| 2026-04-21 21:47 | 40.78643 | -111.98957 | 4230 ft | 8 kts | 165° |
| 2026-04-21 21:48 | 40.78609 | -111.98951 | 4230 ft | 2 kts | 175° |
| 2026-04-21 21:48 | 40.78604 | -111.98951 | 4230 ft | 0 kts | 175° |
| 2026-04-21 21:48 | 40.78603 | -111.98951 | 4230 ft | 0 kts | 175° |
| 2026-04-21 21:48 | 40.78601 | -111.98950 | 4230 ft | 0 kts | 175° |